Time;durP1;ratioP1;P1;durP2;ratioP2;P2;SDS_P1;SDS_P2;PMS_P1;PMS_P2;Temp;Humidity;BMP_temperature;BMP_pressure;BME280_temperature;BME280_humidity;BME280_pressure;Samples;Min_cycle;Max_cycle;Signal;HPM_P1;HPM_P2
2023/06/16 00:01:05;;;;;;;;;;;12.70;96.90;;;;;;5035196;28;19958;-73
2023/06/16 00:03:35;;;;;;;;;;;12.60;97.10;;;;;;5035941;28;19924;-73
2023/06/16 00:06:03;;;;;;;;;;;12.50;97.50;;;;;;5036292;28;19948;-72
2023/06/16 00:08:30;;;;;;;;;;;12.40;97.70;;;;;;5035635;28;19913;-72
2023/06/16 00:10:56;;;;;;;;;;;12.40;98.00;;;;;;5035082;28;19912;-72
2023/06/16 00:13:22;;;;;;;;;;;12.40;98.10;;;;;;5033995;28;19905;-72
2023/06/16 00:15:47;;;;;;;;;;;12.40;98.00;;;;;;5035402;28;20289;-72
2023/06/16 00:18:13;;;;;;;;;;;12.30;98.10;;;;;;5035325;28;19967;-72
2023/06/16 00:20:38;;;;;;;;;;;12.30;98.30;;;;;;5035052;28;19917;-72
2023/06/16 00:23:07;;;;;;;;;;;12.20;98.50;;;;;;5034880;28;19909;-72
2023/06/16 00:25:32;;;;;;;;;;;12.20;98.90;;;;;;5034603;28;20428;-73
2023/06/16 00:27:58;;;;;;;;;;;12.20;99.20;;;;;;5034554;28;20012;-73
2023/06/16 00:30:23;;;;;;;;;;;12.10;99.50;;;;;;5034751;28;19944;-73
2023/06/16 00:32:49;;;;;;;;;;;12.10;99.70;;;;;;5033162;28;19963;-73
2023/06/16 00:35:15;;;;;;;;;;;12.10;99.60;;;;;;5034310;28;19909;-73
2023/06/16 00:37:41;;;;;;;;;;;12.00;99.90;;;;;;5033000;28;20364;-73
2023/06/16 00:40:07;;;;;;;;;;;12.00;99.90;;;;;;5034171;28;20246;-73
2023/06/16 00:42:32;;;;;;;;;;;12.00;99.90;;;;;;5034166;28;19912;-73
2023/06/16 00:44:58;;;;;;;;;;;12.00;99.90;;;;;;5034214;28;19909;-73
2023/06/16 00:47:24;;;;;;;;;;;12.00;99.90;;;;;;5034075;28;19917;-73
2023/06/16 00:49:49;;;;;;;;;;;12.00;99.90;;;;;;5034115;28;19928;-73
2023/06/16 00:52:15;;;;;;;;;;;12.00;99.90;;;;;;5034090;28;20328;-73
2023/06/16 00:54:41;;;;;;;;;;;12.00;99.90;;;;;;5034293;28;19909;-73
2023/06/16 00:57:07;;;;;;;;;;;12.00;99.90;;;;;;5033996;28;19909;-73
2023/06/16 00:59:33;;;;;;;;;;;11.90;99.90;;;;;;5032823;28;20289;-73
2023/06/16 01:01:58;;;;;;;;;;;11.90;99.90;;;;;;5033977;28;20349;-73
2023/06/16 01:04:24;;;;;;;;;;;11.90;99.90;;;;;;5031073;28;20579;-73
2023/06/16 01:06:57;;;;;;;;;;;11.90;99.90;;;;;;5032721;28;19923;-73
2023/06/16 01:09:34;;;;;;;;;;;11.80;99.90;;;;;;5032448;28;19913;-73
2023/06/16 01:12:08;;;;;;;;;;;11.80;99.90;;;;;;5032933;28;19905;-73
2023/06/16 01:14:56;;;;;;;;;;;11.80;99.90;;;;;;5033597;28;20258;-74
2023/06/16 01:17:22;;;;;;;;;;;11.80;99.90;;;;;;5033697;28;19906;-74
2023/06/16 01:20:11;;;;;;;;;;;11.70;99.90;;;;;;5033251;28;19913;-75
2023/06/16 01:22:40;;;;;;;;;;;11.70;99.90;;;;;;5030410;28;20361;-73
2023/06/16 01:25:07;;;;;;;;;;;11.70;99.90;;;;;;5033486;28;19912;-74
2023/06/16 01:27:33;;;;;;;;;;;11.70;99.90;;;;;;5033474;28;20380;-74
2023/06/16 01:30:00;;;;;;;;;;;11.70;99.90;;;;;;5033662;28;19905;-74
2023/06/16 01:32:26;;;;;;;;;;;11.70;99.90;;;;;;5033706;28;20258;-74
2023/06/16 01:34:52;;;;;;;;;;;11.60;99.90;;;;;;5033219;28;20388;-74
2023/06/16 01:37:19;;;;;;;;;;;11.60;99.90;;;;;;5033441;28;19909;-74
2023/06/16 01:39:45;;;;;;;;;;;11.50;99.90;;;;;;5033144;28;19905;-74
2023/06/16 01:42:12;;;;;;;;;;;11.50;99.90;;;;;;5032523;28;19993;-74
2023/06/16 01:44:38;;;;;;;;;;;11.40;99.90;;;;;;5033833;28;19909;-74
2023/06/16 01:47:04;;;;;;;;;;;11.30;99.90;;;;;;5033399;28;20012;-73
2023/06/16 01:49:30;;;;;;;;;;;11.30;99.90;;;;;;5033426;28;19999;-74
2023/06/16 01:51:55;;;;;;;;;;;11.20;99.90;;;;;;5033696;28;20407;-73
2023/06/16 01:54:21;;;;;;;;;;;11.20;99.90;;;;;;5033326;28;19909;-74
2023/06/16 01:56:46;;;;;;;;;;;11.20;99.90;;;;;;5033417;28;19909;-74
2023/06/16 01:59:12;;;;;;;;;;;11.20;99.90;;;;;;5033693;28;20302;-73
2023/06/16 02:01:42;;;;;;;;;;;11.20;99.90;;;;;;5033325;28;19924;-74
2023/06/16 02:04:15;;;;;;;;;;;11.20;99.90;;;;;;5033593;28;19905;-74
2023/06/16 02:06:43;;;;;;;;;;;11.20;99.90;;;;;;5033301;28;20350;-74
2023/06/16 02:09:11;;;;;;;;;;;11.20;99.90;;;;;;5031980;28;19995;-74
2023/06/16 02:11:37;;;;;;;;;;;11.20;99.90;;;;;;5033288;28;19912;-73
2023/06/16 02:14:03;;;;;;;;;;;11.20;99.90;;;;;;5033096;28;19995;-74
2023/06/16 02:16:29;;;;;;;;;;;11.20;99.90;;;;;;5034461;28;19905;-74
2023/06/16 02:18:55;;;;;;;;;;;11.10;99.90;;;;;;5036819;28;20366;-73
2023/06/16 02:21:21;;;;;;;;;;;11.00;99.90;;;;;;5037036;28;19916;-73
2023/06/16 02:23:46;;;;;;;;;;;11.00;99.90;;;;;;5036698;28;19909;-74
2023/06/16 02:26:12;;;;;;;;;;;11.00;99.90;;;;;;5036423;28;19909;-74
2023/06/16 02:28:37;;;;;;;;;;;11.00;99.90;;;;;;5036620;28;19948;-73
2023/06/16 02:31:03;;;;;;;;;;;10.90;99.90;;;;;;5035299;28;19909;-74
2023/06/16 02:33:28;;;;;;;;;;;10.90;99.90;;;;;;5036575;28;19905;-73
2023/06/16 02:35:54;;;;;;;;;;;10.90;99.90;;;;;;5036498;28;19912;-74
2023/06/16 02:38:20;;;;;;;;;;;10.80;99.90;;;;;;5036947;28;19924;-73
2023/06/16 02:40:45;;;;;;;;;;;10.80;99.90;;;;;;5036983;28;19948;-73
2023/06/16 02:43:11;;;;;;;;;;;10.70;99.90;;;;;;5036407;28;19909;-73
2023/06/16 02:45:36;;;;;;;;;;;10.60;99.90;;;;;;5036264;28;20258;-73
2023/06/16 02:48:02;;;;;;;;;;;10.50;99.90;;;;;;5036279;28;19912;-73
2023/06/16 02:50:27;;;;;;;;;;;10.50;99.90;;;;;;5036262;28;19955;-73
2023/06/16 02:52:55;;;;;;;;;;;10.50;99.90;;;;;;5036324;28;20288;-73
2023/06/16 02:55:21;;;;;;;;;;;10.50;99.90;;;;;;5036251;28;19913;-73
2023/06/16 02:57:46;;;;;;;;;;;10.50;99.90;;;;;;5036196;28;19909;-73
2023/06/16 03:00:12;;;;;;;;;;;10.40;99.90;;;;;;5034856;28;19909;-73
2023/06/16 03:02:38;;;;;;;;;;;10.40;99.90;;;;;;5036072;28;19999;-73
2023/06/16 03:05:04;;;;;;;;;;;10.40;99.90;;;;;;5036028;28;20288;-73
2023/06/16 03:07:31;;;;;;;;;;;10.30;99.90;;;;;;5036158;28;19913;-73
2023/06/16 03:09:57;;;;;;;;;;;10.30;99.90;;;;;;5036239;28;19909;-73
2023/06/16 03:12:22;;;;;;;;;;;10.30;99.90;;;;;;5036162;28;19909;-73
2023/06/16 03:14:48;;;;;;;;;;;10.30;99.90;;;;;;5036532;28;20226;-73
2023/06/16 03:17:13;;;;;;;;;;;10.30;99.90;;;;;;5035739;28;19905;-73
2023/06/16 03:19:40;;;;;;;;;;;10.30;99.90;;;;;;5035732;28;19939;-73
2023/06/16 03:22:05;;;;;;;;;;;10.30;99.90;;;;;;5034533;28;20015;-73
2023/06/16 03:24:33;;;;;;;;;;;10.30;99.90;;;;;;5035709;28;20377;-73
2023/06/16 03:26:58;;;;;;;;;;;10.20;99.90;;;;;;5035658;28;19909;-73
2023/06/16 03:29:24;;;;;;;;;;;10.20;99.90;;;;;;5034661;28;19916;-73
2023/06/16 03:31:49;;;;;;;;;;;10.20;99.90;;;;;;5035648;28;19995;-73
2023/06/16 03:34:16;;;;;;;;;;;10.10;99.90;;;;;;5035332;28;19917;-73
2023/06/16 03:36:41;;;;;;;;;;;10.10;99.90;;;;;;5035712;28;19909;-73
2023/06/16 03:39:07;;;;;;;;;;;10.00;99.90;;;;;;5035359;28;19916;-73
2023/06/16 03:41:33;;;;;;;;;;;10.00;99.90;;;;;;5034000;28;19905;-73
2023/06/16 03:43:58;;;;;;;;;;;10.00;99.90;;;;;;5035326;28;19909;-73
2023/06/16 03:46:24;;;;;;;;;;;9.90;99.90;;;;;;5035468;28;19905;-74
2023/06/16 03:48:50;;;;;;;;;;;9.90;99.90;;;;;;5035037;28;19913;-74
2023/06/16 03:51:16;;;;;;;;;;;9.90;99.90;;;;;;5035076;28;19960;-74
2023/06/16 03:53:42;;;;;;;;;;;10.00;99.90;;;;;;5035090;28;19955;-74
2023/06/16 03:56:08;;;;;;;;;;;10.00;99.90;;;;;;5035247;28;19908;-74
2023/06/16 03:58:33;;;;;;;;;;;10.00;99.90;;;;;;5034949;28;19952;-74
2023/06/16 04:00:59;;;;;;;;;;;10.10;99.90;;;;;;5034924;28;19945;-74
2023/06/16 04:03:26;;;;;;;;;;;10.10;99.90;;;;;;5034860;28;19912;-74
2023/06/16 04:05:54;;;;;;;;;;;10.20;99.90;;;;;;5035067;28;19992;-73
2023/06/16 04:08:20;;;;;;;;;;;10.20;99.90;;;;;;5034720;28;19909;-73
2023/06/16 04:10:46;;;;;;;;;;;10.20;99.90;;;;;;5034948;28;20277;-74
2023/06/16 04:13:11;;;;;;;;;;;10.20;99.90;;;;;;5034851;28;19905;-74
2023/06/16 04:15:37;;;;;;;;;;;10.30;99.90;;;;;;5034592;28;20401;-73
2023/06/16 04:18:02;;;;;;;;;;;10.20;99.90;;;;;;5034611;28;19916;-74
2023/06/16 04:20:28;;;;;;;;;;;10.30;99.90;;;;;;5034355;28;19948;-73
2023/06/16 04:22:53;;;;;;;;;;;10.30;99.90;;;;;;5033246;28;19995;-73
2023/06/16 04:25:21;;;;;;;;;;;10.30;99.90;;;;;;5034429;28;20293;-74
2023/06/16 04:27:49;;;;;;;;;;;10.30;99.90;;;;;;5034682;28;19948;-74
2023/06/16 04:30:20;;;;;;;;;;;10.30;99.90;;;;;;5034362;28;19912;-74
2023/06/16 04:32:45;;;;;;;;;;;10.40;99.90;;;;;;5034669;28;19908;-73
2023/06/16 04:35:11;;;;;;;;;;;10.40;99.90;;;;;;5032999;28;19996;-74
2023/06/16 04:37:37;;;;;;;;;;;10.40;99.90;;;;;;5034552;28;19916;-74
2023/06/16 04:40:05;;;;;;;;;;;10.50;99.90;;;;;;5034397;28;19931;-74
2023/06/16 04:42:30;;;;;;;;;;;10.50;99.90;;;;;;5033925;28;19923;-73
2023/06/16 04:44:57;;;;;;;;;;;10.60;99.90;;;;;;5033512;28;19909;-73
2023/06/16 04:47:23;;;;;;;;;;;10.70;99.90;;;;;;5033518;28;19916;-73
2023/06/16 04:49:48;;;;;;;;;;;10.70;99.90;;;;;;5031354;28;19913;-73
2023/06/16 04:52:14;;;;;;;;;;;10.80;99.90;;;;;;5034276;28;19909;-73
2023/06/16 04:54:40;;;;;;;;;;;10.80;99.90;;;;;;5033900;28;20297;-73
2023/06/16 04:57:06;;;;;;;;;;;10.80;99.90;;;;;;5032472;28;19905;-73
2023/06/16 04:59:32;;;;;;;;;;;10.90;99.90;;;;;;5034012;28;19914;-73
2023/06/16 05:01:58;;;;;;;;;;;10.90;99.90;;;;;;5033214;28;20396;-73
2023/06/16 05:04:24;;;;;;;;;;;11.00;99.90;;;;;;5033396;28;19905;-73
2023/06/16 05:06:49;;;;;;;;;;;11.00;99.90;;;;;;5033797;28;19909;-74
2023/06/16 05:09:15;;;;;;;;;;;11.00;99.90;;;;;;5032488;28;19913;-73
2023/06/16 05:11:42;;;;;;;;;;;11.00;99.90;;;;;;5033697;28;19913;-73
2023/06/16 05:14:07;;;;;;;;;;;11.00;99.90;;;;;;5033649;28;20382;-73
2023/06/16 05:16:33;;;;;;;;;;;11.10;99.90;;;;;;5033640;28;19909;-74
2023/06/16 05:18:58;;;;;;;;;;;11.10;99.90;;;;;;5033471;28;19913;-74
2023/06/16 05:21:26;;;;;;;;;;;11.10;99.90;;;;;;5033907;28;19909;-73
2023/06/16 05:23:53;;;;;;;;;;;11.10;99.90;;;;;;5033497;28;19909;-73
2023/06/16 05:26:19;;;;;;;;;;;11.20;99.90;;;;;;5033507;28;20420;-73
2023/06/16 05:28:45;;;;;;;;;;;11.30;99.90;;;;;;5032165;28;19966;-74
2023/06/16 05:31:10;;;;;;;;;;;11.30;99.90;;;;;;5032358;28;20008;-74
2023/06/16 05:33:36;;;;;;;;;;;11.40;99.90;;;;;;5033666;28;19909;-73
2023/06/16 05:36:01;;;;;;;;;;;11.40;99.90;;;;;;5033541;28;19913;-73
2023/06/16 05:38:27;;;;;;;;;;;11.50;99.90;;;;;;5033657;28;19915;-74
2023/06/16 05:40:53;;;;;;;;;;;11.40;99.90;;;;;;5032745;28;19960;-73
2023/06/16 05:43:18;;;;;;;;;;;11.50;99.90;;;;;;5033443;28;20377;-73
2023/06/16 05:45:44;;;;;;;;;;;11.50;99.90;;;;;;5033520;28;19937;-74
2023/06/16 05:48:09;;;;;;;;;;;11.50;99.90;;;;;;5033436;28;20356;-74
2023/06/16 05:50:35;;;;;;;;;;;11.60;99.90;;;;;;5033461;28;19909;-74
2023/06/16 05:53:01;;;;;;;;;;;11.60;99.90;;;;;;5037280;28;19909;-74
2023/06/16 05:55:26;;;;;;;;;;;11.60;99.90;;;;;;5035927;28;19987;-73
2023/06/16 05:57:52;;;;;;;;;;;11.60;99.90;;;;;;5036008;28;19936;-74
2023/06/16 06:00:17;;;;;;;;;;;11.70;99.90;;;;;;5037141;28;19953;-73
2023/06/16 06:02:43;;;;;;;;;;;11.70;99.90;;;;;;5037374;28;20293;-74
2023/06/16 06:05:08;;;;;;;;;;;11.60;99.90;;;;;;5037224;28;19921;-73
2023/06/16 06:07:34;;;;;;;;;;;11.60;99.90;;;;;;5037165;28;19920;-74
2023/06/16 06:10:00;;;;;;;;;;;11.60;99.90;;;;;;5037217;28;20302;-74
2023/06/16 06:12:26;;;;;;;;;;;11.50;99.90;;;;;;5036881;28;19909;-74
2023/06/16 06:14:51;;;;;;;;;;;11.40;99.90;;;;;;5036756;28;19916;-73
2023/06/16 06:17:17;;;;;;;;;;;11.50;99.90;;;;;;5036866;28;19916;-73
2023/06/16 06:19:43;;;;;;;;;;;11.50;99.90;;;;;;5036765;28;19917;-74
2023/06/16 06:22:08;;;;;;;;;;;11.50;99.90;;;;;;5036784;28;19909;-74
2023/06/16 06:24:34;;;;;;;;;;;11.60;99.90;;;;;;5036563;28;20008;-74
2023/06/16 06:26:59;;;;;;;;;;;11.60;99.90;;;;;;5037172;28;19917;-73
2023/06/16 06:29:25;;;;;;;;;;;11.70;99.90;;;;;;5036895;28;19920;-74
2023/06/16 06:31:51;;;;;;;;;;;11.70;99.90;;;;;;5036671;28;19915;-74
2023/06/16 06:34:16;;;;;;;;;;;11.80;99.90;;;;;;5036527;28;20292;-73
2023/06/16 06:36:42;;;;;;;;;;;11.80;99.90;;;;;;5036559;28;20344;-74
2023/06/16 06:39:08;;;;;;;;;;;11.80;99.90;;;;;;5036441;28;20335;-74
2023/06/16 06:41:34;;;;;;;;;;;11.90;99.90;;;;;;5036426;28;19935;-74
2023/06/16 06:44:00;;;;;;;;;;;12.00;99.90;;;;;;5036589;28;20388;-73
2023/06/16 06:46:25;;;;;;;;;;;12.10;99.90;;;;;;5036657;28;19905;-74
2023/06/16 06:48:51;;;;;;;;;;;12.20;99.90;;;;;;5036239;28;20448;-74
2023/06/16 06:51:17;;;;;;;;;;;12.30;99.90;;;;;;5036255;28;19909;-72
2023/06/16 06:53:43;;;;;;;;;;;12.50;99.90;;;;;;5036141;28;20272;-73
2023/06/16 06:56:08;;;;;;;;;;;12.60;99.90;;;;;;5036123;28;19995;-73
2023/06/16 06:58:34;;;;;;;;;;;12.80;99.90;;;;;;5036341;28;20407;-73
2023/06/16 07:00:59;;;;;;;;;;;13.00;99.90;;;;;;5036105;28;19909;-73
2023/06/16 07:03:26;;;;;;;;;;;13.00;99.90;;;;;;5034730;28;20353;-73
2023/06/16 07:05:52;;;;;;;;;;;13.20;99.90;;;;;;5036009;28;19916;-73
2023/06/16 07:08:17;;;;;;;;;;;13.30;99.90;;;;;;5034911;28;20281;-73
2023/06/16 07:10:43;;;;;;;;;;;13.30;99.90;;;;;;5035975;28;19909;-73
2023/06/16 07:13:08;;;;;;;;;;;13.40;99.90;;;;;;5036150;28;19905;-74
2023/06/16 07:15:34;;;;;;;;;;;13.40;99.90;;;;;;5035856;28;19913;-73
2023/06/16 07:18:00;;;;;;;;;;;13.50;99.90;;;;;;5035787;28;19942;-73
2023/06/16 07:20:25;;;;;;;;;;;13.60;99.90;;;;;;5035608;28;19921;-73
2023/06/16 07:22:51;;;;;;;;;;;13.70;99.90;;;;;;5034422;28;19910;-74
2023/06/16 07:25:16;;;;;;;;;;;13.70;99.90;;;;;;5035606;28;19909;-73
2023/06/16 07:27:43;;;;;;;;;;;13.80;99.90;;;;;;5035554;28;19913;-74
2023/06/16 07:30:08;;;;;;;;;;;13.90;99.90;;;;;;5035548;28;19909;-74
2023/06/16 07:32:39;;;;;;;;;;;14.00;99.90;;;;;;5035491;28;19912;-73
2023/06/16 07:35:06;;;;;;;;;;;14.10;99.90;;;;;;5035372;28;19905;-73
2023/06/16 07:37:32;;;;;;;;;;;14.20;99.90;;;;;;5035519;28;19909;-73
2023/06/16 07:39:58;;;;;;;;;;;14.30;99.90;;;;;;5035445;28;19912;-74
2023/06/16 07:42:23;;;;;;;;;;;14.50;99.90;;;;;;5035353;28;19909;-74
2023/06/16 07:44:49;;;;;;;;;;;14.80;99.90;;;;;;5035273;28;19916;-74
2023/06/16 07:47:15;;;;;;;;;;;15.00;99.90;;;;;;5035178;28;19908;-74
2023/06/16 07:49:40;;;;;;;;;;;15.30;99.90;;;;;;5035596;28;19917;-74
2023/06/16 07:52:06;;;;;;;;;;;15.60;99.90;;;;;;5035220;28;19959;-74
2023/06/16 07:54:32;;;;;;;;;;;15.90;99.90;;;;;;5035020;28;19937;-74
2023/06/16 07:56:58;;;;;;;;;;;16.00;99.90;;;;;;5033747;28;19909;-74
2023/06/16 07:59:23;;;;;;;;;;;16.10;99.90;;;;;;5035233;28;19951;-74
2023/06/16 08:01:49;;;;;;;;;;;16.10;99.90;;;;;;5033992;28;19909;-73
2023/06/16 08:04:15;;;;;;;;;;;16.30;99.90;;;;;;5034817;28;20297;-74
2023/06/16 08:06:41;;;;;;;;;;;16.30;99.90;;;;;;5035046;28;19935;-73
2023/06/16 08:09:07;;;;;;;;;;;16.40;99.90;;;;;;5034698;28;20357;-74
2023/06/16 08:11:34;;;;;;;;;;;16.60;99.90;;;;;;5033586;28;19909;-73
2023/06/16 08:13:59;;;;;;;;;;;16.80;99.90;;;;;;5034514;28;20309;-74
2023/06/16 08:16:25;;;;;;;;;;;16.90;99.90;;;;;;5034358;28;19905;-73
2023/06/16 08:18:52;;;;;;;;;;;16.90;99.90;;;;;;5033232;28;20284;-73
2023/06/16 08:21:18;;;;;;;;;;;17.10;99.90;;;;;;5034584;28;20250;-74
2023/06/16 08:23:43;;;;;;;;;;;17.20;99.90;;;;;;5033341;28;19916;-74
2023/06/16 08:26:09;;;;;;;;;;;17.10;99.90;;;;;;5034535;28;19916;-74
2023/06/16 08:28:40;;;;;;;;;;;17.10;99.90;;;;;;5035578;28;19947;-74
2023/06/16 08:31:06;;;;;;;;;;;17.10;99.90;;;;;;5035799;28;19916;-74
2023/06/16 08:33:32;;;;;;;;;;;17.00;99.90;;;;;;5035699;28;20284;-73
2023/06/16 08:35:58;;;;;;;;;;;17.00;99.90;;;;;;5035789;28;19913;-74
2023/06/16 08:38:23;;;;;;;;;;;17.00;99.90;;;;;;5035712;28;19912;-74
2023/06/16 08:40:49;;;;;;;;;;;17.20;99.90;;;;;;5035572;28;19909;-74
2023/06/16 08:43:15;;;;;;;;;;;17.40;99.90;;;;;;5035442;28;19905;-74
2023/06/16 08:45:40;;;;;;;;;;;17.70;99.90;;;;;;5035056;28;19975;-74
2023/06/16 08:48:06;;;;;;;;;;;17.90;99.90;;;;;;5034657;28;20368;-74
2023/06/16 08:50:32;;;;;;;;;;;18.10;98.00;;;;;;5033540;28;19916;-74
2023/06/16 08:53:00;;;;;;;;;;;18.40;98.90;;;;;;5034608;28;19909;-75
2023/06/16 08:55:26;;;;;;;;;;;18.70;98.70;;;;;;5034485;28;20000;-74
2023/06/16 08:57:52;;;;;;;;;;;19.00;97.00;;;;;;5034231;28;20365;-73
2023/06/16 09:00:18;;;;;;;;;;;19.10;97.50;;;;;;5035233;28;19909;-74
2023/06/16 09:02:48;;;;;;;;;;;19.10;97.00;;;;;;5034072;28;19951;-73
2023/06/16 09:05:15;;;;;;;;;;;19.00;96.90;;;;;;5033805;28;20324;-73
2023/06/16 09:07:41;;;;;;;;;;;18.90;96.50;;;;;;5039995;28;19963;-73
2023/06/16 09:10:07;;;;;;;;;;;19.00;96.80;;;;;;5034135;28;19932;-74
2023/06/16 09:12:33;;;;;;;;;;;19.10;98.10;;;;;;5033930;28;19910;-73
2023/06/16 09:15:01;;;;;;;;;;;19.40;98.00;;;;;;5033730;28;19905;-73
2023/06/16 09:17:30;;;;;;;;;;;19.70;96.20;;;;;;5033748;28;19909;-73
2023/06/16 09:19:55;;;;;;;;;;;20.10;94.00;;;;;;5033810;28;19967;-74
2023/06/16 09:22:25;;;;;;;;;;;20.00;93.20;;;;;;5033715;28;19909;-74
2023/06/16 09:25:01;;;;;;;;;;;20.00;92.70;;;;;;5033995;28;19909;-74
2023/06/16 09:27:46;;;;;;;;;;;19.90;92.40;;;;;;5033032;28;19909;-74
2023/06/16 09:30:12;;;;;;;;;;;19.90;92.80;;;;;;5032348;28;19905;-73
2023/06/16 09:32:38;;;;;;;;;;;19.90;92.90;;;;;;5033720;28;19935;-74
2023/06/16 09:35:17;;;;;;;;;;;19.80;93.20;;;;;;5032350;28;19935;-73
2023/06/16 09:37:43;;;;;;;;;;;19.80;93.00;;;;;;5033730;28;20376;-74
2023/06/16 09:40:09;;;;;;;;;;;19.80;93.10;;;;;;5033671;28;19912;-74
2023/06/16 09:42:38;;;;;;;;;;;19.90;93.60;;;;;;5033658;28;20034;-73
2023/06/16 09:45:11;;;;;;;;;;;20.20;92.40;;;;;;5032353;28;19905;-73
2023/06/16 09:47:38;;;;;;;;;;;20.50;91.50;;;;;;5033590;28;20405;-73
2023/06/16 09:50:07;;;;;;;;;;;20.70;91.10;;;;;;5032550;28;20016;-73
2023/06/16 09:52:36;;;;;;;;;;;20.80;91.40;;;;;;5033702;28;19905;-73
2023/06/16 09:55:02;;;;;;;;;;;20.80;90.40;;;;;;5032758;28;20357;-73
2023/06/16 09:57:28;;;;;;;;;;;20.80;91.40;;;;;;5033197;28;19912;-73
2023/06/16 09:59:54;;;;;;;;;;;20.80;91.30;;;;;;5033347;28;20483;-73
2023/06/16 10:02:21;;;;;;;;;;;20.60;91.10;;;;;;5032793;28;20003;-73
2023/06/16 10:04:48;;;;;;;;;;;20.40;90.80;;;;;;5033213;28;19909;-73
2023/06/16 10:07:14;;;;;;;;;;;20.40;90.40;;;;;;5033348;28;20297;-73
2023/06/16 10:09:42;;;;;;;;;;;20.50;90.00;;;;;;5032515;28;20350;-73
2023/06/16 10:12:09;;;;;;;;;;;20.80;89.40;;;;;;5033615;28;20273;-73
2023/06/16 10:14:35;;;;;;;;;;;21.00;88.50;;;;;;5033116;28;19927;-73
2023/06/16 10:17:00;;;;;;;;;;;21.10;84.90;;;;;;5033096;28;20405;-73
2023/06/16 10:19:30;;;;;;;;;;;21.00;81.60;;;;;;5033064;28;19913;-73
2023/06/16 10:21:56;;;;;;;;;;;20.90;81.80;;;;;;5033530;28;19905;-73
2023/06/16 10:24:22;;;;;;;;;;;20.70;83.20;;;;;;5033305;28;19913;-73
2023/06/16 10:26:48;;;;;;;;;;;20.70;83.60;;;;;;5033440;28;19909;-73
2023/06/16 10:29:16;;;;;;;;;;;20.50;83.60;;;;;;5033045;28;20011;-74
2023/06/16 10:31:45;;;;;;;;;;;20.50;85.70;;;;;;5026706;28;20284;-73
2023/06/16 10:34:20;;;;;;;;;;;20.40;81.30;;;;;;5026823;28;19916;-73
2023/06/16 10:36:46;;;;;;;;;;;20.20;79.40;;;;;;5033072;28;19905;-73
2023/06/16 10:39:17;;;;;;;;;;;20.00;81.20;;;;;;5036492;28;19905;-73
2023/06/16 10:41:49;;;;;;;;;;;19.80;81.90;;;;;;5035281;28;19909;-73
2023/06/16 10:44:25;;;;;;;;;;;19.70;85.30;;;;;;5036799;28;19951;-73
2023/06/16 10:47:09;;;;;;;;;;;19.60;84.80;;;;;;5036846;28;19999;-73
2023/06/16 10:49:45;;;;;;;;;;;19.50;84.40;;;;;;5036947;28;19909;-73
2023/06/16 10:52:15;;;;;;;;;;;19.30;83.70;;;;;;5036281;28;20371;-73
2023/06/16 10:54:44;;;;;;;;;;;19.10;82.20;;;;;;5035873;28;19909;-73
2023/06/16 10:57:12;;;;;;;;;;;19.00;80.60;;;;;;5036451;28;19905;-73
2023/06/16 10:59:56;;;;;;;;;;;18.90;75.90;;;;;;5036121;28;19905;-73
2023/06/16 11:02:23;;;;;;;;;;;18.80;75.70;;;;;;5035879;28;19905;-73
2023/06/16 11:05:10;;;;;;;;;;;18.70;77.30;;;;;;5036013;28;19990;-72
2023/06/16 11:07:54;;;;;;;;;;;18.80;77.70;;;;;;5036165;28;19912;-72
2023/06/16 11:10:21;;;;;;;;;;;18.80;82.80;;;;;;5036057;28;19913;-72
2023/06/16 11:12:47;;;;;;;;;;;18.90;83.40;;;;;;5035844;28;19905;-73
2023/06/16 11:15:13;;;;;;;;;;;19.00;82.50;;;;;;5035772;28;19912;-73
2023/06/16 11:17:44;;;;;;;;;;;19.10;81.20;;;;;;5035925;28;19909;-73
2023/06/16 11:20:11;;;;;;;;;;;19.10;80.90;;;;;;5036271;28;19936;-73
2023/06/16 11:22:36;;;;;;;;;;;19.10;76.90;;;;;;5035949;28;19915;-73
2023/06/16 11:25:03;;;;;;;;;;;18.90;73.90;;;;;;5034338;28;20004;-73
2023/06/16 11:27:30;;;;;;;;;;;18.90;76.80;;;;;;5035547;28;19995;-72
2023/06/16 11:29:56;;;;;;;;;;;18.80;81.50;;;;;;5036060;28;20318;-73
2023/06/16 11:32:22;;;;;;;;;;;18.80;84.00;;;;;;5035533;28;19913;-73
2023/06/16 11:34:47;;;;;;;;;;;18.70;84.10;;;;;;5035549;28;19913;-73
2023/06/16 11:37:13;;;;;;;;;;;18.90;86.00;;;;;;5034699;28;19959;-73
2023/06/16 11:39:45;;;;;;;;;;;19.00;86.00;;;;;;5035720;28;19915;-73
2023/06/16 11:42:14;;;;;;;;;;;19.00;82.50;;;;;;5035763;28;19916;-73
2023/06/16 11:44:40;;;;;;;;;;;19.00;82.30;;;;;;5035178;28;19915;-73
2023/06/16 11:47:06;;;;;;;;;;;18.90;81.70;;;;;;5036574;28;19955;-73
2023/06/16 11:49:38;;;;;;;;;;;18.90;83.00;;;;;;5034822;28;19917;-73
2023/06/16 11:52:05;;;;;;;;;;;18.90;82.80;;;;;;5035662;28;19916;-73
2023/06/16 11:54:30;;;;;;;;;;;19.10;81.40;;;;;;5035387;28;20396;-73
2023/06/16 11:56:59;;;;;;;;;;;19.40;82.20;;;;;;5035687;28;19905;-73
2023/06/16 11:59:30;;;;;;;;;;;19.70;79.40;;;;;;5035327;28;19909;-73
2023/06/16 12:01:57;;;;;;;;;;;20.00;83.20;;;;;;5035324;28;19905;-73
2023/06/16 12:04:23;;;;;;;;;;;20.10;79.50;;;;;;5035081;28;20324;-73
2023/06/16 12:06:48;;;;;;;;;;;20.00;81.30;;;;;;5035010;28;20350;-73
2023/06/16 12:09:17;;;;;;;;;;;19.70;81.40;;;;;;5034847;28;19921;-73
2023/06/16 12:11:46;;;;;;;;;;;19.50;85.90;;;;;;5037960;28;19919;-72
2023/06/16 12:14:21;;;;;;;;;;;19.20;86.80;;;;;;5031888;28;19910;-73
2023/06/16 12:16:53;;;;;;;;;;;18.90;88.10;;;;;;5042850;28;19908;-73
2023/06/16 12:19:19;;;;;;;;;;;18.70;89.00;;;;;;5041740;28;19952;-74
2023/06/16 12:21:48;;;;;;;;;;;18.50;90.40;;;;;;5035185;28;19996;-73
2023/06/16 12:24:14;;;;;;;;;;;18.40;93.20;;;;;;5034627;28;19905;-73
2023/06/16 12:26:40;;;;;;;;;;;17.90;91.80;;;;;;5035742;28;20289;-74
2023/06/16 12:29:10;;;;;;;;;;;17.60;93.00;;;;;;5037411;28;19919;-75
2023/06/16 12:31:36;;;;;;;;;;;17.40;95.00;;;;;;5036520;28;20384;-74
2023/06/16 12:34:01;;;;;;;;;;;17.10;96.40;;;;;;5035889;28;19909;-74
2023/06/16 12:36:27;;;;;;;;;;;17.10;97.70;;;;;;5036214;28;20000;-75
2023/06/16 12:38:57;;;;;;;;;;;17.10;99.40;;;;;;5036208;28;20281;-75
2023/06/16 12:41:25;;;;;;;;;;;17.00;99.80;;;;;;5035838;28;19916;-75
2023/06/16 12:43:52;;;;;;;;;;;16.90;99.90;;;;;;5035042;28;19912;-75
2023/06/16 12:46:18;;;;;;;;;;;16.80;99.90;;;;;;5035839;28;19916;-74
2023/06/16 12:48:44;;;;;;;;;;;16.80;99.90;;;;;;5054390;28;19952;-75
2023/06/16 12:51:12;;;;;;;;;;;16.70;99.90;;;;;;5049466;28;20426;-74
2023/06/16 12:53:41;;;;;;;;;;;16.60;99.90;;;;;;5043997;28;19941;-74
2023/06/16 12:56:09;;;;;;;;;;;16.50;99.90;;;;;;5034249;28;19960;-75
2023/06/16 12:58:36;;;;;;;;;;;16.60;99.90;;;;;;5019018;28;20339;-74
2023/06/16 13:01:01;;;;;;;;;;;16.70;99.90;;;;;;5013507;28;19917;-75
2023/06/16 13:03:27;;;;;;;;;;;16.80;99.90;;;;;;5014436;28;19909;-74
2023/06/16 13:05:52;;;;;;;;;;;16.90;99.90;;;;;;5040868;28;19955;-74
2023/06/16 13:08:18;;;;;;;;;;;17.00;99.90;;;;;;5053914;28;19917;-73
2023/06/16 13:10:43;;;;;;;;;;;17.30;99.90;;;;;;5038454;28;19996;-73
2023/06/16 13:13:09;;;;;;;;;;;17.70;99.90;;;;;;5034205;28;20004;-73
2023/06/16 13:15:35;;;;;;;;;;;18.00;99.90;;;;;;5033885;28;20365;-74
2023/06/16 13:18:00;;;;;;;;;;;18.30;99.90;;;;;;5033882;28;19920;-74
2023/06/16 13:20:26;;;;;;;;;;;18.60;99.90;;;;;;5033875;28;19971;-74
2023/06/16 13:22:51;;;;;;;;;;;18.80;99.90;;;;;;5034110;28;19909;-74
2023/06/16 13:25:17;;;;;;;;;;;18.80;99.90;;;;;;5033814;28;19909;-74
2023/06/16 13:27:42;;;;;;;;;;;18.80;99.90;;;;;;5033783;28;19909;-73
2023/06/16 13:30:08;;;;;;;;;;;18.80;99.50;;;;;;5033794;28;20288;-73
2023/06/16 13:32:34;;;;;;;;;;;18.60;97.70;;;;;;5033724;28;20000;-73
2023/06/16 13:35:00;;;;;;;;;;;18.60;97.80;;;;;;5042947;28;19913;-73
2023/06/16 13:37:25;;;;;;;;;;;18.70;99.20;;;;;;5036420;28;19909;-73
2023/06/16 13:39:52;;;;;;;;;;;18.90;96.40;;;;;;5029985;28;20013;-73
2023/06/16 13:42:17;;;;;;;;;;;18.60;96.80;;;;;;5014151;28;19910;-74
2023/06/16 13:44:44;;;;;;;;;;;18.30;96.50;;;;;;5013827;28;19956;-74
2023/06/16 13:47:09;;;;;;;;;;;18.00;97.60;;;;;;5013832;28;19917;-73
2023/06/16 13:49:35;;;;;;;;;;;17.90;98.90;;;;;;5013747;28;19913;-74
2023/06/16 13:52:00;;;;;;;;;;;17.80;99.80;;;;;;5017285;28;19913;-72
2023/06/16 13:54:26;;;;;;;;;;;17.80;99.40;;;;;;5033455;28;19909;-73
2023/06/16 13:56:51;;;;;;;;;;;17.80;99.90;;;;;;5033799;28;19944;-73
2023/06/16 13:59:17;;;;;;;;;;;17.70;99.90;;;;;;5036800;28;19959;-72
2023/06/16 14:01:43;;;;;;;;;;;17.60;99.90;;;;;;5033828;28;19913;-73
2023/06/16 14:04:08;;;;;;;;;;;17.50;99.90;;;;;;5033581;28;19905;-73
2023/06/16 14:06:34;;;;;;;;;;;17.40;99.90;;;;;;5033360;28;19916;-73
2023/06/16 14:08:59;;;;;;;;;;;17.30;99.90;;;;;;5033330;28;19913;-73
2023/06/16 14:11:25;;;;;;;;;;;17.00;99.90;;;;;;5033380;28;20004;-72
2023/06/16 14:13:51;;;;;;;;;;;16.70;99.90;;;;;;5056068;28;19935;-73